COOK1: Arkansas River Nr Coolidge, KS

                                SHEF ID:       COOK1     ARKANSAS R NR COOLIDGE, KS
STATION TYPE:
Regulating: Stage = 8.00, Flow = 2041

PRECIP STAGE STAGE(2) RIV-FLOW WTR-TEMP CONDUCT BAT-LOAD
in ft ft cfs F umho/cm volt
Ccp-Rev Ccp-Rev Ccp-Rev Ccp-Rev Ccp-Rev Ccp-Rev Ccp-Rev
(America/Chicago)
12/08 00:00 0.00 2.25 ---- 78 42.03 6849 12.39
12/08 01:00 0.00 2.25 ---- 78 41.29 6858 12.35
12/08 02:00 0.00 2.25 ---- 78 40.57 6863 12.33
12/08 03:00 0.00 2.25 ---- 78 40.01 6872 12.31
12/08 04:00 0.00 2.26 ---- 79 39.49 6876 12.27
12/08 05:00 0.00 2.25 ---- 78 38.98 6880 12.23
12/08 06:00 0.00 2.25 ---- 78 38.52 6885 12.21
12/08 07:00 0.00 2.26 ---- 79 38.07 6890 12.16
12/08 08:00 0.00 2.26 ---- 79 37.63 6894 12.14
12/08 09:00 0.00 2.25 ---- 78 37.40 6898 12.80
12/08 10:00 0.00 2.25 ---- 78 37.83 6894 13.79
12/08 11:00 0.00 2.25 ---- 78 38.91 6881 13.88
12/08 12:00 0.00 2.26 ---- 79 40.39 6869 14.01
12/08 13:00 0.00 2.27 ---- 80 41.97 6849 14.38
12/08 14:00 0.00 2.26 ---- 79 43.50 6838 14.13
12/08 15:00 0.00 2.27 ---- 80 44.69 6833 14.03
12/08 16:00 0.00 2.27 ---- 80 45.30 6827 14.01
12/08 17:00 0.00 2.27 ---- 80 45.28 6829 13.99
12/08 18:00 0.00 2.26 ---- 79 45.03 6831 13.38
12/08 19:00 0.00 2.27 ---- 80 44.73 6833 12.60
12/08 20:00 0.00 2.26 ---- 79 44.29 6836 12.58
12/08 21:00 0.00 2.26 ---- 79 43.70 6842 12.53
12/08 22:00 0.00 2.26 ---- 79 43.09 6845 12.48
12/08 23:00 0.00 2.27 ---- 80 42.57 6851 12.44
Data processed at Tue 09Dec2025 05:30 GMT

NOTICE: If you are parsing this page

Please convert to using our Data API. Starting January 1st, 2026 we will be migrating to: https://water.usace.army.mil with modern pages rendered in JavaScript. You will no longer be able to scrape this page! CWMSDataAPI (CDA)

Timeseries IDs (TSIDs)

TSIDs used from left to right in the data table
COOL.Precip-Inc.Total.1Hour.1Hour.Ccp-Rev
COOL.Stage.Inst.1Hour.0.Ccp-Rev
COOL.Stage-Alt.Inst.1Hour.0.Ccp-Rev
COOL.Flow.Inst.1Hour.0.Ccp-Rev
COOL.Temp-Water.Inst.1Hour.0.Ccp-Rev
COOL.Cond.Inst.1Hour.0.Ccp-Rev
COOL.Volt-Battery Load.Inst.1Hour.0.Ccp-Rev

                            

All information presented herein is the property of the government of the United States of America and may be revised or deleted at any time without prior notice. Dissemination of this information without the expressed written consent of the Public Affairs Office, Tulsa District U.S. Army Corps of Engineers is strictly prohibited. These data are gathered electronically and, as presented, have NOT undergone any form of quality control. These data are NOT guaranteed to be valid or correct.